フラブロヴォ空港の過去48時間の天気

フラブロヴォ空港 (Kaliningrad/Khrabrovo Airport)

現在時刻: 12/6 23:39 EET (12/6 21:39 UTC) 以下の時間は現地時間です。

過去48時間のMETAR気象情報
時間 風向 風速(m/s) 視程 気温(℃) 湿度(%) 気圧(hPa) 天気現象
6 23:00 南西 7 7000m 4 87 1002
6 22:30 南西 7 7000m 3 93 1003
6 22:00 南西 7 6000m 3 93 1003
6 21:30 南西 7 3500m 3 93 1003 弱いしゅう雨 もや
6 21:00 南西 7 4500m 3 93 1003 弱いしゅう雨 もや
6 20:30 南西 8 6000m 3 93 1003
6 20:00 南西 7 5000m 3 93 1003 弱いしゅう雨 もや
6 19:30 南西 8 5000m 3 93 1004 弱いしゅう雨 もや
6 19:00 南西 8 4900m 3 93 1004 弱いしゅう雨 もや
6 18:30 南西 8 4800m 2 93 1004 弱いしゅう雨 もや
6 18:00 南西 9 4500m 2 93 1004 弱いしゅう雨 もや
6 17:30 南西 8 3700m 2 93 1004 弱いしゅう雨 もや
6 17:00 南西 9 5000m 2 93 1004 弱いしゅう雨 もや
6 16:30 南西 9 6000m 3 87 1004 弱いしゅう雨
6 16:00 南西 9 7000m 3 81 1004
6 15:30 南西 10 8000m 3 81 1004
6 15:00 南西 8 8000m 3 81 1004
6 14:30 南西 9 7000m 2 87 1004
6 14:00 南西 8 7000m 2 87 1004
6 13:30 南西 8 7000m 2 87 1004
6 13:00 南西 8 7000m 2 87 1004 弱い雨
6 12:30 南西 9 8000m 2 81 1004 弱い雨
6 12:00 南西 9 9000m 2 81 1005 弱い雨
6 11:30 南西 8 9000m 3 75 1004 弱い雨
6 11:00 南西 10 10km以上 3 70 1004 弱い雨
6 10:30 南西 10 10km以上 3 65 1004
6 10:00 南西 10 10km以上 3 65 1004
6 09:30 南西 10 10km以上 2 69 1004
6 09:00 南南西 9 10km以上 2 69 1004
6 08:30 南南西 8 10km以上 1 75 1004
6 08:00 南南西 7 9000m 1 75 1004
6 07:30 南南西 7 9000m 1 80 1005
6 07:00 南南西 7 9000m 1 75 1006
6 06:30 南南西 6 10km以上 1 75 1006
6 06:00 南南西 7 9000m 1 80 1007
6 05:30 南南西 7 9000m 1 80 1007
6 05:00 南南西 7 8000m 1 80 1007
6 04:30 南南西 7 7000m 1 80 1008
6 04:00 南南西 7 8000m 1 80 1008
6 03:30 南南西 7 8000m 1 80 1009
6 03:00 南南西 7 8000m 1 80 1009
6 02:30 南西 7 8000m 1 80 1010
6 02:00 南西 7 9000m 1 86 1010
6 01:30 南西 6 9000m 1 86 1010
6 01:00 南西 7 8000m 2 81 1011
6 00:30 南西 7 8000m 1 86 1011
6 00:00 南西 7 8000m 2 81 1011
5 23:30 南西 7 8000m 1 86 1011
5 23:00 南西 7 10km以上 1 86 1012
5 22:30 南西 6 10km以上 2 81 1012
5 22:00 南西 7 10km以上 2 81 1012
5 21:30 南西 7 10km以上 2 81 1012
5 21:00 南西 7 9000m 2 81 1013
5 20:30 南西 7 10km以上 3 75 1012
5 20:00 南西 7 10km以上 3 75 1013
5 19:30 南西 6 10km以上 3 81 1013
5 19:00 南西 4 9000m 2 87 1014
5 18:30 南西 4 9000m 3 81 1014
5 18:00 南西 4 7000m 3 81 1014
5 17:30 南南西 3 7000m 3 87 1014
5 17:00 南西 2 7000m 2 93 1014
5 16:30 南南西 2 7000m 2 87 1014
5 16:00 南西 3 7000m 3 87 1015
5 15:30 南西 5 8000m 3 87 1015
5 15:00 南西 5 9000m 4 81 1015
5 14:30 南西 7 10km以上 4 81 1016
5 14:00 南南西 5 10km以上 4 81 1015
5 13:30 南南西 5 10km以上 4 81 1016
5 13:00 南西 5 10km以上 4 81 1016
5 12:30 南南西 4 10km以上 4 87 1016
5 12:00 南南西 5 9000m 4 87 1017
5 11:30 南西 4 9000m 4 87 1017
5 11:00 南西 4 10km以上 4 87 1018
5 10:30 南西 4 10km以上 4 87 1018
5 10:00 南西 4 10km以上 4 87 1017
5 09:30 南南西 4 10km以上 4 87 1017
5 09:00 南南西 5 10km以上 4 87 1017
5 08:30 南南西 5 10km以上 4 87 1018
5 08:00 南南西 5 10km以上 4 87 1017
5 07:30 南南西 5 10km以上 4 87 1018
5 07:00 南南西 5 10km以上 5 81 1017
5 06:30 南南西 6 10km以上 5 81 1017
5 06:00 南南西 5 10km以上 5 81 1018
5 05:30 南西 6 10km以上 5 81 1018
5 05:00 南西 6 10km以上 5 81 1018
5 04:30 南西 5 10km以上 5 81 1018
5 04:00 南南西 5 10km以上 5 81 1018
5 03:30 南南西 5 10km以上 5 87 1018
5 03:00 南南西 4 10km以上 5 87 1018
5 02:30 南南西 4 10km以上 6 81 1018
5 02:00 南西 3 10km以上 6 81 1018
5 01:30 南西 4 10km以上 6 81 1018
5 01:00 南西 3 10km以上 6 81 1019
5 00:30 南西 5 10km以上 6 81 1019
5 00:00 南西 4 10km以上 6 87 1019
UMKK 062100Z 22007MPS 7000 OVC010 04/02 Q1002 R24/290095 NOSIG RMK QFE751/1001
UMKK 062030Z 22007MPS 7000 OVC010 03/02 Q1003 R24/290095 NOSIG RMK QFE751/1001
UMKK 062000Z 22007MPS 6000 BKN007 BKN016CB 03/02 Q1003 R24/290095 NOSIG RMK QFE751/1001
UMKK 061930Z 22007MPS 3500 -SHRA BR BKN007 BKN017CB 03/02 Q1003 R24/290095 NOSIG RMK QFE751/1002
UMKK 061900Z 22007G12MPS 4500 -SHRA BR BKN007 BKN017CB 03/02 Q1003 R24/290095 NOSIG RMK QFE751/1002
UMKK 061830Z 22008MPS 6000 BKN007 BKN021CB 03/02 Q1003 R24/290095 NOSIG RMK QFE751/1002
UMKK 061800Z 22007MPS 5000 -SHRA BR BKN008 BKN021CB 03/02 Q1003 R24/290095 NOSIG RMK QFE751/1002
UMKK 061730Z 22008MPS 5000 -SHRA BR BKN007 BKN021CB 03/02 Q1004 R24/290095 NOSIG RMK QFE751/1002
UMKK 061700Z 22008MPS 4900 -SHRA BR BKN007 BKN022CB 03/02 Q1004 R24/290095 NOSIG RMK QFE751/1002
UMKK 061630Z 22008MPS 4800 -SHRA BR BKN007 BKN024CB 02/01 Q1004 R24/290095 NOSIG RMK QFE752/1002
UMKK 061600Z 22009MPS 4500 -SHRA BR BKN007 BKN023CB 02/01 Q1004 R24/290095 NOSIG RMK QFE752/1002
UMKK 061530Z 22008G13MPS 3700 -SHRA BR BKN008 BKN022CB 02/01 Q1004 R24/290095 NOSIG RMK QFE752/1002
UMKK 061500Z 22009MPS 5000 -SHRA BR BKN009 BKN021CB 02/01 Q1004 R24/290095 NOSIG RMK QFE752/1002
UMKK 061430Z 23009MPS 6000 -SHRA SCT009 BKN020CB 03/01 Q1004 R24/290095 NOSIG RMK QFE752/1003
UMKK 061400Z 22009MPS 7000 OVC015 03/00 Q1004 R24/290095 NOSIG RMK QFE752/1002
UMKK 061330Z 22010G15MPS 8000 OVC023 03/00 Q1004 R24/290095 NOSIG RMK QFE752/1002
UMKK 061300Z 22008MPS 190V250 8000 OVC023 03/M00 Q1004 R24/290095 NOSIG RMK QFE752/1002
UMKK 061230Z 22009MPS 7000 OVC018 02/M00 Q1004 R24/290095 NOSIG RMK QFE752/1003
UMKK 061200Z 22008MPS 7000 OVC018 02/M00 Q1004 R24/290095 NOSIG RMK QFE752/1003
UMKK 061130Z 22008G13MPS 7000 OVC018 02/M00 Q1004 R24/290095 NOSIG RMK QFE752/1003
UMKK 061100Z 22008MPS 7000 -RA OVC019 02/M00 Q1004 R24/290095 NOSIG RMK QFE752/1003
UMKK 061030Z 22009MPS 8000 -RA OVC026 02/M01 Q1004 R24/19//95 NOSIG RMK QFE752/1003
UMKK 061000Z 22009MPS 9000 -RA OVC025 02/M01 Q1005 R24/19//95 NOSIG RMK QFE752/1003
UMKK 060930Z 22008MPS 9000 -RA OVC025 03/M01 Q1004 R24/19//95 NOSIG RMK QFE752/1003
UMKK 060900Z 22010MPS 9999 -RA OVC024 03/M02 Q1004 R24/19//95 NOSIG RMK QFE752/1003
UMKK 060830Z 23010MPS 9999 BKN025 03/M03 Q1004 R24/CLRD95 NOSIG RMK QFE752/1003
UMKK 060800Z 22010G15MPS 9999 BKN040 03/M03 Q1004 R24/CLRD95 NOSIG RMK QFE752/1002
UMKK 060730Z 22010G16MPS 9999 SCT046 02/M03 Q1004 R24/CLRD95 NOSIG RMK QFE752/1002
UMKK 060700Z 21009G14MPS CAVOK 02/M03 Q1004 R24/CLRD95 NOSIG RMK QFE752/1002
UMKK 060630Z 21008MPS CAVOK 01/M03 Q1004 R24/CLRD95 NOSIG RMK QFE752/1003
UMKK 060600Z 21007G12MPS 9000 NSC 01/M03 Q1004 R24/CLRD95 NOSIG RMK QFE752/1003
UMKK 060530Z 20007MPS 9000 NSC 01/M02 Q1005 R24/CLRD95 NOSIG RMK QFE753/1004
UMKK 060500Z 21007MPS 9000 NSC 01/M03 Q1006 R24/CLRD95 NOSIG RMK QFE753/1004
UMKK 060430Z 20006MPS CAVOK 01/M03 Q1006 R24/95D NOSIG RMK QFE753/1004
UMKK 060400Z 21007MPS 9000 NSC 01/M02 Q1007 R24/95D NOSIG RMK QFE754/1005
UMKK 060330Z 21007MPS 9000 NSC 01/M02 Q1007 R24/95D NOSIG RMK QFE754/1006
UMKK 060300Z 21007MPS 8000 NSC 01/M02 Q1007 R24/95D NOSIG RMK QFE754/1006
UMKK 060230Z 21007MPS 7000 NSC 01/M02 Q1008 R24/CLRD95 NOSIG RMK QFE755/1006
UMKK 060200Z 21007MPS 8000 NSC 01/M02 Q1008 R24/95D NOSIG RMK QFE755/1007
UMKK 060130Z 21007MPS 8000 NSC 01/M02 Q1009 R24/CLRD95 NOSIG RMK QFE755/1007
UMKK 060100Z 21007MPS 8000 NSC 01/M02 Q1009 R24/CLRD95 NOSIG RMK QFE756/1008
UMKK 060030Z 22007MPS 8000 NSC 01/M02 Q1010 R24/95D NOSIG RMK QFE756/1008
UMKK 060000Z 22007MPS 9000 NSC 01/M01 Q1010 R24/CLRD95 NOSIG RMK QFE756/1009
UMKK 052330Z 22006MPS 9000 NSC 01/M01 Q1010 R24/95D NOSIG RMK QFE756/1009
UMKK 052300Z 22007MPS 8000 NSC 02/M01 Q1011 R24/CLRD95 NOSIG RMK QFE757/1009
UMKK 052230Z 23007MPS 8000 NSC 01/M01 Q1011 R24/CLRD95 NOSIG RMK QFE757/1010
UMKK 052200Z 22007MPS 8000 NSC 02/M01 Q1011 R24/95D NOSIG RMK QFE757/1010
UMKK 052130Z 22007MPS 8000 NSC 01/M01 Q1011 R24/CLRD95 NOSIG RMK QFE757/1010
UMKK 052100Z 22007MPS CAVOK 01/M01 Q1012 R24/95D NOSIG RMK QFE758/1010
UMKK 052030Z 22006MPS CAVOK 02/M01 Q1012 R24/95D NOSIG RMK QFE758/1011
UMKK 052000Z 22007MPS 9999 FEW030 02/M01 Q1012 R24/95D NOSIG RMK QFE758/1011
UMKK 051930Z 22007MPS 9999 FEW030 02/M01 Q1012 R24/95D NOSIG RMK QFE758/1011
UMKK 051900Z 22007MPS 9000 FEW030 02/M01 Q1013 R24/CLRD95 NOSIG RMK QFE758/1011
UMKK 051830Z 22007MPS 9999 FEW030 03/M01 Q1012 R24/CLRD95 NOSIG RMK QFE758/1011
UMKK 051800Z 22007MPS 9999 FEW030 03/M01 Q1013 R24/CLRD95 NOSIG RMK QFE758/1011
UMKK 051730Z 22006MPS 9999 FEW030 03/M00 Q1013 R24/CLRD95 NOSIG RMK QFE759/1012
UMKK 051700Z 22004MPS 9000 FEW030 02/M00 Q1014 R24/CLRD95 NOSIG RMK QFE759/1012
UMKK 051630Z 22004MPS 9000 SCT024 03/00 Q1014 R24/CLRD95 NOSIG RMK QFE759/1013
UMKK 051600Z 23004MPS 7000 SCT024 03/00 Q1014 R24/CLRD95 NOSIG RMK QFE759/1013
UMKK 051530Z 21003MPS 7000 SCT021 03/01 Q1014 R24/CLRD95 NOSIG RMK QFE759/1013
UMKK 051500Z 22002MPS 190V260 7000 SCT020 02/01 Q1014 R24/CLRD95 NOSIG RMK QFE760/1013
UMKK 051430Z 21002MPS 180V250 7000 SCT012 02/00 Q1014 R24/CLRD95 NOSIG RMK QFE760/1013
UMKK 051400Z 22003MPS 7000 BKN012 03/01 Q1015 R24/CLRD95 NOSIG RMK QFE760/1013
UMKK 051330Z 23005MPS 200V260 8000 BKN012 03/01 Q1015 R24/CLRD95 NOSIG RMK QFE760/1014
UMKK 051300Z 22005MPS 9000 BKN014 04/01 Q1015 R24/CLRD95 NOSIG RMK QFE760/1014
UMKK 051230Z 23007MPS 200V260 9999 BKN014 04/01 Q1016 R24/CLRD95 NOSIG RMK QFE761/1014
UMKK 051200Z 21005MPS 9999 OVC014 04/01 Q1015 R24/CLRD95 NOSIG RMK QFE760/1014
UMKK 051130Z 21005MPS 9999 OVC016 04/01 Q1016 R24/CLRD95 NOSIG RMK QFE761/1015
UMKK 051100Z 22005MPS 190V250 9999 OVC016 04/01 Q1016 R24/CLRD95 NOSIG RMK QFE761/1015
UMKK 051030Z 21004MPS 9999 OVC016 04/02 Q1016 R24/CLRD95 NOSIG RMK QFE761/1015
UMKK 051000Z 21005MPS 180V240 9000 OVC017 04/02 Q1017 R24/CLRD95 NOSIG RMK QFE761/1015
UMKK 050930Z 22004MPS 9000 OVC017 04/02 Q1017 R24/190095 NOSIG RMK QFE762/1016
UMKK 050900Z 22004MPS 9999 OVC016 04/02 Q1018 R24/190095 NOSIG RMK QFE762/1016
UMKK 050830Z 22004MPS 9999 OVC016 04/02 Q1018 R24/190095 NOSIG RMK QFE762/1016
UMKK 050800Z 22004MPS 9999 OVC016 04/02 Q1017 R24/190095 NOSIG RMK QFE762/1016
UMKK 050730Z 21004MPS 9999 OVC017 04/02 Q1017 R24/190095 NOSIG RMK QFE762/1016
UMKK 050700Z 21005MPS 9999 OVC016 04/02 Q1017 R24/190095 NOSIG RMK QFE762/1016
UMKK 050630Z 21005MPS 9999 OVC015 04/02 Q1018 R24/190095 NOSIG RMK QFE762/1016
UMKK 050600Z 21005MPS 9999 OVC017 04/02 Q1017 R24/290095 NOSIG RMK QFE762/1016
UMKK 050530Z 21005MPS 9999 OVC019 04/02 Q1018 R24/290095 NOSIG RMK QFE762/1016
UMKK 050500Z 21005MPS 9999 OVC019 05/02 Q1017 R24/290095 NOSIG RMK QFE762/1016
UMKK 050430Z 21006MPS 9999 OVC020 05/02 Q1017 R24/290095 NOSIG RMK QFE762/1016
UMKK 050400Z 21005MPS 9999 OVC019 05/02 Q1018 R24/290095 NOSIG RMK QFE762/1016
UMKK 050330Z 22006MPS 9999 OVC019 05/02 Q1018 R24/290095 NOSIG RMK QFE762/1016
UMKK 050300Z 22006MPS 9999 OVC018 05/02 Q1018 R24/290095 NOSIG RMK QFE762/1016
UMKK 050230Z 22005MPS 9999 OVC019 05/02 Q1018 R24/290095 NOSIG RMK QFE762/1016
UMKK 050200Z 21005MPS 9999 OVC019 05/02 Q1018 R24/290095 NOSIG RMK QFE762/1016
UMKK 050130Z 21005MPS 170V230 9999 OVC021 05/03 Q1018 R24/290095 NOSIG RMK QFE762/1017
UMKK 050100Z 21004MPS 180V240 9999 OVC022 05/03 Q1018 R24/290095 NOSIG RMK QFE763/1017
UMKK 050030Z 21004MPS 180V240 9999 OVC020 06/03 Q1018 R24/290095 NOSIG RMK QFE763/1017
UMKK 050000Z 22003MPS 9999 OVC020 06/03 Q1018 R24/290095 NOSIG RMK QFE763/1017
UMKK 042330Z 23004MPS 9999 OVC020 06/03 Q1018 R24/290095 NOSIG RMK QFE763/1017
UMKK 042300Z 23003MPS 9999 OVC019 06/03 Q1019 R24/290095 NOSIG RMK QFE763/1017
UMKK 042230Z 22005MPS 9999 OVC019 06/03 Q1019 R24/290095 NOSIG RMK QFE763/1017
UMKK 042200Z 22004MPS 9999 OVC019 06/04 Q1019 R24/290095 NOSIG RMK QFE763/1017